createdAt,value
2018-04-19T00:02:41.116Z,63.86
2018-04-19T00:05:44.543Z,63.20
2018-04-19T00:08:48.578Z,63.16
2018-04-19T00:11:51.865Z,63.86
2018-04-19T00:14:55.115Z,64.24
2018-04-19T00:17:58.391Z,63.95
2018-04-19T00:21:01.645Z,64.94
2018-04-19T00:24:04.943Z,64.03
2018-04-19T00:27:08.964Z,65.75
2018-04-19T00:30:12.448Z,64.53
2018-04-19T00:33:16.468Z,65.71
2018-04-19T00:36:20.525Z,65.13
2018-04-19T00:39:23.801Z,65.66
2018-04-19T00:42:27.070Z,65.41
2018-04-19T00:45:31.083Z,65.63
2018-04-19T00:48:35.150Z,65.64
2018-04-19T00:51:38.407Z,65.79
2018-04-19T00:54:42.464Z,65.57
2018-04-19T00:57:45.744Z,65.97
2018-04-19T01:00:49.004Z,66.24
2018-04-19T01:03:52.259Z,65.75
2018-04-19T01:06:55.642Z,65.59
2018-04-19T01:09:58.913Z,65.92
2018-04-19T01:13:02.936Z,65.46
2018-04-19T01:16:06.949Z,65.80
2018-04-19T01:19:10.993Z,65.82
2018-04-19T01:22:14.276Z,66.12
2018-04-19T01:25:17.550Z,66.35
2018-04-19T01:28:21.696Z,66.70
2018-04-19T01:31:24.954Z,66.75
2018-04-19T01:34:28.254Z,66.58
2018-04-19T01:37:32.280Z,66.97
2018-04-19T01:40:36.361Z,67.00
2018-04-19T01:43:39.630Z,67.59
2018-04-19T01:46:42.922Z,67.87
2018-04-19T01:49:46.209Z,67.26
2018-04-19T01:52:49.471Z,67.48
2018-04-19T01:55:52.720Z,68.03
2018-04-19T01:58:56.011Z,68.05
2018-04-19T02:02:00.867Z,67.76
2018-04-19T02:05:04.124Z,67.56
2018-04-19T02:08:08.162Z,67.76
2018-04-19T02:11:11.410Z,67.49
2018-04-19T02:14:14.675Z,68.40
2018-04-19T02:17:18.691Z,67.78
2018-04-19T02:20:21.966Z,67.64
2018-04-19T02:23:25.263Z,68.00
2018-04-19T02:26:29.480Z,67.83
2018-04-19T02:29:32.774Z,67.71
2018-04-19T02:32:36.851Z,68.14
2018-04-19T02:35:40.893Z,67.75
2018-04-19T02:38:44.179Z,67.53
2018-04-19T02:41:48.222Z,67.63
2018-04-19T02:44:51.486Z,68.00
2018-04-19T02:47:55.527Z,67.33
2018-04-19T02:50:58.792Z,67.43
2018-04-19T02:54:02.821Z,68.11
2018-04-19T02:57:06.842Z,67.48
2018-04-19T03:00:10.115Z,68.65
2018-04-19T03:03:14.168Z,68.95
2018-04-19T03:06:17.531Z,68.24
2018-04-19T03:09:21.641Z,68.49
2018-04-19T03:12:25.910Z,68.18
2018-04-19T03:15:29.326Z,68.44
2018-04-19T03:18:32.592Z,69.10
2018-04-19T03:21:35.833Z,69.28
2018-04-19T03:24:39.123Z,68.53
2018-04-19T03:27:43.153Z,68.21
2018-04-19T03:30:46.493Z,68.68
2018-04-19T03:33:50.608Z,68.87
2018-04-19T03:37:12.911Z,68.67
2018-04-19T03:40:17.978Z,69.19
2018-04-19T03:43:21.993Z,68.64
2018-04-19T03:46:26.103Z,68.82
2018-04-19T03:49:29.432Z,68.93
2018-04-19T03:52:32.699Z,69.64
2018-04-19T03:55:36.734Z,69.88
2018-04-19T03:58:40.023Z,69.51
2018-04-19T04:01:44.045Z,69.36
2018-04-19T04:04:48.068Z,69.55
2018-04-19T04:07:51.360Z,69.67
2018-04-19T04:10:54.641Z,69.57
2018-04-19T04:13:58.669Z,69.13
2018-04-19T04:17:20.403Z,69.65
2018-04-19T04:20:42.264Z,69.93
2018-04-19T04:23:53.363Z,69.80
2018-04-19T04:27:01.213Z,70.55
2018-04-19T04:30:04.939Z,70.60
2018-04-19T04:33:08.571Z,70.28
2018-04-19T04:36:12.888Z,70.20
2018-04-19T04:39:16.605Z,69.90
2018-04-19T04:42:21.961Z,70.29
2018-04-19T04:45:25.236Z,70.39
2018-04-19T04:48:30.081Z,69.74
2018-04-19T04:51:33.962Z,70.24
2018-04-19T04:54:37.577Z,69.29
2018-04-19T04:58:01.370Z,68.62
2018-04-19T05:01:06.510Z,68.49
2018-04-19T05:04:11.762Z,68.67
2018-04-19T05:07:18.070Z,67.89
2018-04-19T05:10:24.651Z,67.79
2018-04-19T05:13:27.910Z,67.54
2018-04-19T05:16:32.617Z,67.10
2018-04-19T05:19:36.713Z,65.32
2018-04-19T05:22:40.003Z,65.40
2018-04-19T05:25:43.257Z,65.16
2018-04-19T05:28:48.151Z,63.93
2018-04-19T05:31:51.518Z,62.57
2018-04-19T05:34:55.541Z,60.62
2018-04-19T05:37:58.798Z,60.66
2018-04-19T05:41:02.050Z,58.63
2018-04-19T05:44:05.322Z,56.28
2018-04-19T05:47:09.346Z,55.10
2018-04-19T05:50:12.601Z,55.29
2018-04-19T05:53:15.876Z,55.19
2018-04-19T05:56:19.154Z,54.77
2018-04-19T05:59:22.435Z,53.63
2018-04-19T06:02:25.705Z,51.17
2018-04-19T06:05:28.967Z,47.21
2018-04-19T06:08:32.245Z,45.89
2018-04-19T06:11:35.534Z,45.58
2018-04-19T06:14:38.806Z,44.51
2018-04-19T06:17:42.834Z,42.34
2018-04-19T06:20:46.111Z,46.55
2018-04-19T06:23:50.272Z,46.33
2018-04-19T06:26:53.559Z,44.76
2018-04-19T06:29:56.927Z,43.69
2018-04-19T06:33:00.192Z,42.66
2018-04-19T06:36:03.477Z,44.18
2018-04-19T06:39:06.748Z,43.04
2018-04-19T06:42:10.787Z,44.03
2018-04-19T06:45:14.055Z,44.48
2018-04-19T06:48:17.326Z,44.87
2018-04-19T06:51:20.608Z,43.39
2018-04-19T06:54:23.861Z,44.21
2018-04-19T06:57:27.163Z,42.45
2018-04-19T07:00:30.442Z,42.59
2018-04-19T07:03:34.499Z,43.88
2018-04-19T07:06:37.792Z,41.94
2018-04-19T07:09:41.090Z,41.06
2018-04-19T07:12:44.393Z,41.62
2018-04-19T07:15:47.670Z,43.24
2018-04-19T07:18:50.947Z,42.24
2018-04-19T07:21:54.243Z,40.56
2018-04-19T07:24:57.517Z,41.37
2018-04-19T07:28:01.566Z,40.39
2018-04-19T07:31:04.872Z,40.65
2018-04-19T07:34:08.152Z,41.03
2018-04-19T07:37:11.425Z,40.52
2018-04-19T07:40:15.464Z,41.15
2018-04-19T07:43:18.915Z,40.17
2018-04-19T07:46:22.213Z,40.37
2018-04-19T07:49:25.515Z,40.26
2018-04-19T07:52:28.784Z,39.00
2018-04-19T07:55:32.104Z,41.99
2018-04-19T07:58:35.390Z,40.03
2018-04-19T08:01:38.652Z,39.32
2018-04-19T08:04:41.997Z,39.71
2018-04-19T08:07:45.272Z,39.75
2018-04-19T08:10:48.592Z,39.23
2018-04-19T08:13:51.979Z,39.23
2018-04-19T08:16:55.238Z,39.63
2018-04-19T08:19:58.554Z,38.52
2018-04-19T08:23:02.600Z,39.92
2018-04-19T08:26:05.909Z,38.83
2018-04-19T08:29:09.185Z,39.81
2018-04-19T08:32:12.459Z,38.31
2018-04-19T08:35:16.511Z,38.26
2018-04-19T08:38:19.797Z,39.20
2018-04-19T08:41:23.147Z,38.89
2018-04-19T08:44:26.397Z,40.83
2018-04-19T08:47:29.671Z,37.26
2018-04-19T08:50:32.954Z,36.48
2018-04-19T08:53:37.013Z,35.88
2018-04-19T08:56:40.278Z,36.14
2018-04-19T08:59:44.334Z,36.25
2018-04-19T09:02:47.631Z,35.58
2018-04-19T09:05:50.921Z,35.40
2018-04-19T09:08:54.255Z,36.02
2018-04-19T09:11:57.532Z,36.29
2018-04-19T09:15:00.795Z,34.38
2018-04-19T09:18:04.068Z,34.62
2018-04-19T09:21:08.108Z,34.03
2018-04-19T09:24:11.386Z,35.60
2018-04-19T09:27:15.618Z,34.99
2018-04-19T09:30:18.879Z,34.90
2018-04-19T09:33:22.193Z,35.59
2018-04-19T09:36:26.224Z,35.17
2018-04-19T09:39:29.498Z,34.35
2018-04-19T09:42:32.894Z,34.58
2018-04-19T09:45:36.146Z,34.42
2018-04-19T09:48:39.416Z,34.00
2018-04-19T09:51:42.674Z,34.85
2018-04-19T09:54:45.939Z,34.82
2018-04-19T09:58:06.893Z,34.83
2018-04-19T10:01:11.102Z,33.76
2018-04-19T10:04:14.434Z,35.30
2018-04-19T10:07:17.691Z,36.71
2018-04-19T10:10:20.967Z,34.85
2018-04-19T10:13:24.245Z,35.85
2018-04-19T10:16:27.540Z,34.80
2018-04-19T10:19:30.814Z,34.08
2018-04-19T10:22:35.381Z,35.32
2018-04-19T10:25:38.638Z,33.72
2018-04-19T10:28:42.666Z,34.76
2018-04-19T10:31:45.925Z,33.90
2018-04-19T10:34:49.192Z,32.65
2018-04-19T10:37:52.470Z,32.78
2018-04-19T10:40:56.396Z,32.25
2018-04-19T10:43:59.660Z,32.33
2018-04-19T10:47:03.766Z,32.22
2018-04-19T10:50:07.019Z,33.44
2018-04-19T10:53:10.338Z,31.51
2018-04-19T10:56:13.782Z,31.82
2018-04-19T10:59:17.066Z,32.71
2018-04-19T11:02:21.161Z,31.33
2018-04-19T11:05:25.195Z,32.05
2018-04-19T11:08:29.234Z,31.43
2018-04-19T11:11:32.516Z,31.72
2018-04-19T11:14:36.563Z,29.84
2018-04-19T11:17:39.823Z,29.85
2018-04-19T11:20:43.875Z,30.41
2018-04-19T11:23:47.159Z,30.97
2018-04-19T11:26:50.428Z,30.96
2018-04-19T11:29:54.484Z,31.47
2018-04-19T11:32:57.781Z,30.50
2018-04-19T11:36:01.044Z,29.64
2018-04-19T11:39:04.355Z,30.18
2018-04-19T11:42:07.634Z,30.45
2018-04-19T11:45:11.651Z,31.09
2018-04-19T11:48:15.709Z,31.30
2018-04-19T11:51:18.968Z,30.40
2018-04-19T11:54:23.092Z,29.81
2018-04-19T11:57:26.426Z,30.17
2018-04-19T12:00:29.674Z,30.03
2018-04-19T12:03:33.727Z,30.09
2018-04-19T12:06:36.998Z,31.06
2018-04-19T12:09:41.325Z,30.38
2018-04-19T12:12:44.676Z,31.41
2018-04-19T12:15:48.165Z,32.28
2018-04-19T12:18:51.433Z,30.26
2018-04-19T12:21:54.691Z,28.45
2018-04-19T12:24:57.969Z,29.61
2018-04-19T12:28:01.226Z,28.45
2018-04-19T12:31:04.500Z,29.45
2018-04-19T12:34:08.581Z,29.49
2018-04-19T12:37:11.811Z,29.26
2018-04-19T12:40:15.868Z,29.39
2018-04-19T12:43:19.136Z,29.24
2018-04-19T12:46:23.164Z,28.88
2018-04-19T12:49:26.439Z,29.80
2018-04-19T12:52:35.425Z,29.89
2018-04-19T12:55:40.174Z,30.26
2018-04-19T12:58:43.461Z,29.20
2018-04-19T13:01:47.228Z,29.85
2018-04-19T13:04:52.283Z,28.57
2018-04-19T13:07:55.609Z,28.74
2018-04-19T13:10:58.885Z,29.08
2018-04-19T13:14:02.255Z,29.54
2018-04-19T13:17:06.327Z,29.80
2018-04-19T13:20:09.616Z,30.14
2018-04-19T13:23:12.907Z,29.90
2018-04-19T13:26:16.226Z,29.28
2018-04-19T13:29:20.293Z,29.70
2018-04-19T13:32:24.624Z,30.41
2018-04-19T13:35:27.914Z,30.60
2018-04-19T13:38:31.186Z,30.37
2018-04-19T13:41:35.262Z,30.72
2018-04-19T13:44:38.522Z,27.76
2018-04-19T13:47:41.805Z,27.50
2018-04-19T13:50:45.139Z,29.38
2018-04-19T13:53:49.233Z,30.02
2018-04-19T13:56:52.528Z,30.89
2018-04-19T13:59:56.583Z,31.10
2018-04-19T14:02:59.959Z,31.12
2018-04-19T14:06:04.294Z,30.83
2018-04-19T14:09:10.361Z,30.92
2018-04-19T14:12:13.633Z,31.34
2018-04-19T14:15:16.949Z,32.04
2018-04-19T14:18:20.214Z,30.67
2018-04-19T14:21:23.670Z,29.75
2018-04-19T14:24:26.950Z,29.71
2018-04-19T14:27:30.263Z,30.27
2018-04-19T14:30:33.802Z,30.50
2018-04-19T14:33:37.136Z,30.54
2018-04-19T14:36:40.415Z,29.24
2018-04-19T14:39:43.714Z,29.52
2018-04-19T14:42:46.970Z,30.33
2018-04-19T14:45:50.247Z,29.40
2018-04-19T14:48:53.531Z,29.62
2018-04-19T14:51:56.981Z,28.86
2018-04-19T14:55:01.041Z,28.92
2018-04-19T14:58:04.314Z,29.11
2018-04-19T15:01:07.647Z,28.34
2018-04-19T15:04:10.920Z,28.83
2018-04-19T15:07:14.185Z,27.84
2018-04-19T15:10:17.469Z,27.88
2018-04-19T15:13:20.747Z,28.22
2018-04-19T15:16:24.229Z,27.54
2018-04-19T15:19:27.554Z,27.83
2018-04-19T15:22:30.830Z,27.49
2018-04-19T15:25:34.101Z,26.40
2018-04-19T15:28:37.361Z,26.58
2018-04-19T15:31:40.670Z,26.63
2018-04-19T15:34:43.918Z,26.75
2018-04-19T15:37:47.189Z,26.94
2018-04-19T15:40:51.215Z,27.22
2018-04-19T15:43:54.506Z,26.61
2018-04-19T15:46:57.847Z,25.69
2018-04-19T15:50:01.182Z,25.66
2018-04-19T15:53:04.454Z,25.83
2018-04-19T15:56:07.786Z,26.49
2018-04-19T15:59:11.826Z,26.11
2018-04-19T16:02:15.136Z,27.31
2018-04-19T16:05:18.417Z,27.02
2018-04-19T16:08:23.446Z,27.01
2018-04-19T16:11:27.771Z,26.55
2018-04-19T16:14:32.028Z,26.64
2018-04-19T16:17:35.299Z,26.61
2018-04-19T16:20:39.498Z,26.94
2018-04-19T16:23:43.547Z,26.84
2018-04-19T16:26:46.810Z,26.06
2018-04-19T16:29:50.091Z,26.00
2018-04-19T16:32:53.403Z,25.64
2018-04-19T16:35:57.395Z,25.81
2018-04-19T16:39:00.664Z,26.55
2018-04-19T16:42:03.992Z,26.64
2018-04-19T16:45:08.043Z,26.45
2018-04-19T16:48:11.656Z,27.23
2018-04-19T16:51:15.994Z,27.41
2018-04-19T16:54:20.014Z,26.87
2018-04-19T16:57:24.198Z,27.05
2018-04-19T17:00:28.298Z,26.87
2018-04-19T17:03:31.924Z,26.34
2018-04-19T17:06:35.200Z,26.44
2018-04-19T17:09:38.537Z,26.87
2018-04-19T17:12:41.842Z,27.30
2018-04-19T17:15:45.309Z,27.24
2018-04-19T17:18:49.368Z,27.46
2018-04-19T17:21:53.484Z,28.14
2018-04-19T17:24:56.782Z,28.08
2018-04-19T17:28:03.121Z,28.35
2018-04-19T17:31:06.453Z,28.58
2018-04-19T17:34:10.514Z,29.27
2018-04-19T17:37:14.011Z,29.50
2018-04-19T17:40:17.411Z,29.92
2018-04-19T17:43:20.766Z,30.38
2018-04-19T17:46:24.853Z,30.75
2018-04-19T17:49:28.276Z,31.27
2018-04-19T17:52:32.295Z,31.66
2018-04-19T17:55:37.299Z,32.07
2018-04-19T17:58:40.570Z,32.37
2018-04-19T18:01:43.832Z,32.87
2018-04-19T18:05:04.101Z,33.31
2018-04-19T18:08:34.660Z,33.91
2018-04-19T18:11:40.386Z,34.43
2018-04-19T18:14:43.716Z,35.00
2018-04-19T18:17:47.737Z,35.44
2018-04-19T18:20:51.767Z,36.17
2018-04-19T18:23:55.063Z,36.20
2018-04-19T18:26:58.333Z,36.86
2018-04-19T18:30:02.359Z,37.00
2018-04-19T18:33:05.655Z,37.24
2018-04-19T18:36:09.682Z,37.42
2018-04-19T18:39:12.983Z,37.67
2018-04-19T18:42:16.267Z,39.45
2018-04-19T18:45:20.480Z,38.91
2018-04-19T18:48:23.757Z,39.46
2018-04-19T18:51:27.023Z,40.93
2018-04-19T18:54:30.289Z,41.29
2018-04-19T18:57:33.573Z,41.74
2018-04-19T19:00:37.619Z,42.66
2018-04-19T19:03:40.884Z,43.69
2018-04-19T19:06:45.996Z,43.79
2018-04-19T19:09:50.688Z,44.10
2018-04-19T19:12:53.969Z,44.28
2018-04-19T19:16:12.119Z,45.37
2018-04-19T19:19:34.315Z,46.06
2018-04-19T19:22:37.633Z,46.15
2018-04-19T19:25:40.938Z,46.77
2018-04-19T19:28:44.175Z,46.59
2018-04-19T19:31:47.530Z,46.50
2018-04-19T19:34:50.801Z,46.24
2018-04-19T19:37:58.964Z,48.10
2018-04-19T19:41:02.826Z,50.06
2018-04-19T19:44:06.117Z,51.74
2018-04-19T19:47:11.845Z,52.01
2018-04-19T19:50:15.131Z,51.54
2018-04-19T19:53:19.067Z,51.65
2018-04-19T19:56:22.366Z,51.46
2018-04-19T19:59:26.419Z,51.65
2018-04-19T20:02:29.709Z,51.98
2018-04-19T20:05:32.999Z,51.28
2018-04-19T20:08:40.352Z,52.00
2018-04-19T20:11:43.615Z,51.60
2018-04-19T20:14:46.889Z,51.59
2018-04-19T20:17:50.953Z,51.65
2018-04-19T20:20:54.240Z,51.88
2018-04-19T20:23:57.503Z,52.44
2018-04-19T20:27:01.535Z,52.88
2018-04-19T20:30:05.625Z,53.52
2018-04-19T20:33:08.857Z,54.10
2018-04-19T20:36:12.159Z,53.47
2018-04-19T20:39:15.471Z,54.09
2018-04-19T20:42:18.747Z,54.24
2018-04-19T20:45:22.045Z,54.01
2018-04-19T20:48:25.313Z,55.06
2018-04-19T20:51:28.598Z,55.19
2018-04-19T20:54:32.961Z,55.49
2018-04-19T20:57:37.931Z,56.41
2018-04-19T21:00:41.358Z,57.30
2018-04-19T21:03:44.654Z,57.15
2018-04-19T21:06:47.919Z,58.06
2018-04-19T21:09:51.188Z,58.18
2018-04-19T21:12:55.206Z,58.58
2018-04-19T21:15:59.229Z,59.58
2018-04-19T21:19:03.333Z,59.65
2018-04-19T21:22:07.389Z,59.37
2018-04-19T21:25:10.694Z,59.71
2018-04-19T21:28:13.978Z,59.27
2018-04-19T21:31:17.238Z,59.76
2018-04-19T21:34:20.502Z,59.33
2018-04-19T21:37:23.767Z,58.68
2018-04-19T21:40:27.044Z,58.95
2018-04-19T21:43:31.494Z,58.26
2018-04-19T21:46:34.762Z,58.90
2018-04-19T21:49:38.943Z,58.71
2018-04-19T21:52:42.196Z,59.50
2018-04-19T21:55:46.219Z,60.25
2018-04-19T21:58:50.385Z,58.97
2018-04-19T22:01:53.724Z,59.13
2018-04-19T22:04:57.848Z,59.28
2018-04-19T22:08:01.136Z,59.48
2018-04-19T22:11:05.161Z,59.48
2018-04-19T22:14:08.501Z,59.30
2018-04-19T22:17:12.554Z,59.47
2018-04-19T22:20:16.594Z,59.92
2018-04-19T22:23:19.872Z,59.63
2018-04-19T22:26:23.569Z,60.37
2018-04-19T22:29:27.816Z,59.90
2018-04-19T22:32:31.897Z,59.75
2018-04-19T22:35:35.180Z,60.40
2018-04-19T22:38:38.460Z,59.92
2018-04-19T22:41:41.721Z,59.75
2018-04-19T22:44:45.751Z,60.16
2018-04-19T22:47:49.009Z,61.13
2018-04-19T22:50:52.278Z,61.76
2018-04-19T22:53:55.610Z,61.67
2018-04-19T22:56:58.950Z,62.38
2018-04-19T23:00:02.338Z,62.66
2018-04-19T23:03:06.148Z,63.75
2018-04-19T23:06:09.424Z,62.77
2018-04-19T23:09:12.690Z,62.63
2018-04-19T23:12:15.965Z,63.71
2018-04-19T23:15:19.266Z,63.22
2018-04-19T23:18:22.532Z,62.79
2018-04-19T23:21:25.808Z,63.26
2018-04-19T23:24:29.878Z,63.68
2018-04-19T23:27:33.204Z,63.87
2018-04-19T23:30:36.533Z,63.25
2018-04-19T23:33:39.791Z,63.83
2018-04-19T23:36:43.047Z,63.93
2018-04-19T23:39:46.415Z,63.25
2018-04-19T23:42:49.669Z,63.99
2018-04-19T23:45:53.760Z,63.51
2018-04-19T23:52:07.452Z,64.03
2018-04-19T23:55:10.716Z,64.01
2018-04-19T23:58:14.081Z,65.26
